createdAt,value
2022-08-21T00:02:24.623Z,101164.31
2022-08-21T00:04:57.110Z,101159.19
2022-08-21T00:07:26.032Z,101157.53
2022-08-21T00:09:54.321Z,101152.41
2022-08-21T00:12:21.448Z,101152.63
2022-08-21T00:14:48.469Z,101146.84
2022-08-21T00:17:15.360Z,101148.50
2022-08-21T00:19:42.178Z,101157.16
2022-08-21T00:22:11.653Z,101154.91
2022-08-21T00:24:38.572Z,101154.91
2022-08-21T00:27:05.558Z,101153.66
2022-08-21T00:29:32.429Z,101157.13
2022-08-21T00:32:10.407Z,101160.44
2022-08-21T00:34:37.297Z,101161.88
2022-08-21T00:37:04.183Z,101154.06
2022-08-21T00:39:30.994Z,101159.41
2022-08-21T00:41:57.820Z,101147.69
2022-08-21T00:44:24.684Z,101148.13
2022-08-21T00:46:51.582Z,101143.78
2022-08-21T00:49:18.706Z,101152.84
2022-08-21T00:52:10.534Z,101157.16
2022-08-21T00:54:38.146Z,101151.19
2022-08-21T00:57:13.565Z,101148.31
2022-08-21T00:59:45.755Z,101140.91
2022-08-21T01:02:12.900Z,101147.06
2022-08-21T01:04:40.132Z,101140.31
2022-08-21T01:07:07.070Z,101130.22
2022-08-21T01:09:33.969Z,101135.78
2022-08-21T01:12:11.590Z,101128.78
2022-08-21T01:14:39.003Z,101127.16
2022-08-21T01:17:06.270Z,101119.13
2022-08-21T01:19:33.291Z,101136.41
2022-08-21T01:22:10.664Z,101131.44
2022-08-21T01:24:37.991Z,101138.22
2022-08-21T01:27:05.218Z,101137.00
2022-08-21T01:29:49.865Z,101145.00
2022-08-21T01:32:20.258Z,101143.38
2022-08-21T01:34:49.836Z,101137.38
2022-08-21T01:37:17.973Z,101148.06
2022-08-21T01:39:45.906Z,101143.78
2022-08-21T01:42:19.304Z,101145.81
2022-08-21T01:44:46.504Z,101148.91
2022-08-21T01:47:15.452Z,101144.56
2022-08-21T01:49:46.087Z,101151.56
2022-08-21T01:52:17.140Z,101150.91
2022-08-21T01:54:44.276Z,101167.75
2022-08-21T01:57:15.292Z,101158.28
2022-08-21T01:59:42.801Z,101154.00
2022-08-21T02:02:15.393Z,101162.19
2022-08-21T02:04:42.591Z,101158.72
2022-08-21T02:07:15.628Z,101158.72
2022-08-21T02:09:45.758Z,101163.03
2022-08-21T02:12:12.943Z,101146.38
2022-08-21T02:14:40.115Z,101153.38
2022-08-21T02:17:09.368Z,101151.53
2022-08-21T02:19:40.147Z,101157.69
2022-08-21T02:22:10.011Z,101140.22
2022-08-21T02:24:54.731Z,101141.88
2022-08-21T02:27:27.500Z,101130.16
2022-08-21T02:29:57.475Z,101133.03
2022-08-21T02:32:24.507Z,101128.13
2022-08-21T02:34:51.745Z,101143.50
2022-08-21T02:37:18.918Z,101132.22
2022-08-21T02:39:45.986Z,101139.78
2022-08-21T02:42:12.950Z,101129.34
2022-08-21T02:44:39.864Z,101133.84
2022-08-21T02:47:07.033Z,101130.13
2022-08-21T02:49:35.699Z,101133.03
2022-08-21T02:52:02.619Z,101132.81
2022-08-21T02:54:29.739Z,101138.34
2022-08-21T02:56:56.719Z,101128.91
2022-08-21T02:59:23.833Z,101128.06
2022-08-21T03:01:50.775Z,101127.63
2022-08-21T03:04:17.830Z,101129.88
2022-08-21T03:06:44.726Z,101126.41
2022-08-21T03:09:12.869Z,101128.03
2022-08-21T03:11:40.036Z,101127.22
2022-08-21T03:14:06.986Z,101122.53
2022-08-21T03:16:35.214Z,101124.13
2022-08-21T03:19:03.608Z,101117.19
2022-08-21T03:21:30.616Z,101119.03
2022-08-21T03:23:57.641Z,101116.56
2022-08-21T03:26:27.838Z,101123.53
2022-08-21T03:28:55.350Z,101115.72
2022-08-21T03:31:22.954Z,101119.63
2022-08-21T03:33:50.033Z,101116.75
2022-08-21T03:36:17.141Z,101113.25
2022-08-21T03:38:44.161Z,101109.78
2022-08-21T03:41:11.340Z,101120.00
2022-08-21T03:43:39.687Z,101118.38
2022-08-21T03:46:07.693Z,101116.94
2022-08-21T03:48:36.971Z,101115.91
2022-08-21T03:51:04.653Z,101117.13
2022-08-21T03:53:34.133Z,101112.81
2022-08-21T03:56:01.178Z,101124.72
2022-08-21T03:58:31.463Z,101122.88
2022-08-21T04:01:01.503Z,101136.22
2022-08-21T04:03:29.292Z,101130.22
2022-08-21T04:05:56.552Z,101122.81
2022-08-21T04:08:31.074Z,101130.00
2022-08-21T04:10:59.991Z,101125.47
2022-08-21T04:13:29.425Z,101127.34
2022-08-21T04:15:59.775Z,101126.53
2022-08-21T04:18:32.079Z,101126.28
2022-08-21T04:21:01.123Z,101131.63
2022-08-21T04:23:29.105Z,101124.69
2022-08-21T04:25:57.834Z,101124.88
2022-08-21T04:28:31.185Z,101128.56
2022-08-21T04:30:58.992Z,101127.91
2022-08-21T04:33:26.160Z,101126.47
2022-08-21T04:35:53.571Z,101131.00
2022-08-21T04:38:27.486Z,101141.00
2022-08-21T04:41:03.847Z,101126.88
2022-08-21T04:43:31.540Z,101133.66
2022-08-21T04:45:58.472Z,101139.81
2022-08-21T04:48:31.434Z,101143.50
2022-08-21T04:51:04.310Z,101146.34
2022-08-21T04:53:45.184Z,101157.84
2022-08-21T04:56:22.160Z,101160.09
2022-08-21T04:58:51.266Z,101155.78
2022-08-21T05:01:22.611Z,101149.25
2022-08-21T05:03:53.727Z,101150.25
2022-08-21T05:06:21.324Z,101147.78
2022-08-21T05:08:51.533Z,101162.13
2022-08-21T05:11:29.823Z,101158.19
2022-08-21T05:13:57.392Z,101138.94
2022-08-21T05:16:36.417Z,101143.38
2022-08-21T05:19:06.617Z,101141.72
2022-08-21T05:21:34.967Z,101140.06
2022-08-21T05:24:01.863Z,101141.53
2022-08-21T05:26:28.723Z,101141.72
2022-08-21T05:28:55.518Z,101141.72
2022-08-21T05:31:24.350Z,101148.06
2022-08-21T05:33:51.953Z,101146.63
2022-08-21T05:36:20.142Z,101150.13
2022-08-21T05:38:47.078Z,101156.28
2022-08-21T05:41:14.052Z,101169.00
2022-08-21T05:43:41.035Z,101175.63
2022-08-21T05:46:08.862Z,101170.66
2022-08-21T05:48:37.490Z,101173.50
2022-08-21T05:51:15.060Z,101170.84
2022-08-21T05:53:43.387Z,101177.28
2022-08-21T05:56:11.587Z,101178.09
2022-08-21T05:58:38.530Z,101181.38
2022-08-21T06:01:06.132Z,101190.19
2022-08-21T06:03:36.009Z,101190.00
2022-08-21T06:06:03.572Z,101187.75
2022-08-21T06:08:30.777Z,101183.06
2022-08-21T06:11:00.221Z,101178.78
2022-08-21T06:13:28.020Z,101180.03
2022-08-21T06:16:15.628Z,101183.94
2022-08-21T06:18:44.736Z,101183.13
2022-08-21T06:21:12.977Z,101185.19
2022-08-21T06:23:40.271Z,101180.22
2022-08-21T06:26:08.919Z,101183.91
2022-08-21T06:28:36.951Z,101194.38
2022-08-21T06:31:15.363Z,101179.03
2022-08-21T06:33:42.537Z,101189.28
2022-08-21T06:36:10.354Z,101182.53
2022-08-21T06:38:37.887Z,101182.34
2022-08-21T06:41:06.678Z,101182.16
2022-08-21T06:43:39.831Z,101177.41
2022-08-21T06:46:07.190Z,101172.53
2022-08-21T06:48:35.233Z,101170.47
2022-08-21T06:51:02.330Z,101171.94
2022-08-21T06:53:29.153Z,101174.19
2022-08-21T06:55:56.198Z,101173.19
2022-08-21T06:58:26.862Z,101170.31
2022-08-21T07:00:57.534Z,101170.72
2022-08-21T07:03:32.677Z,101164.38
2022-08-21T07:06:00.170Z,101154.13
2022-08-21T07:08:28.933Z,101156.78
2022-08-21T07:10:58.710Z,101160.91
2022-08-21T07:13:26.041Z,101152.69
2022-08-21T07:15:52.971Z,101151.47
2022-08-21T07:18:26.573Z,101152.09
2022-08-21T07:20:53.419Z,101155.19
2022-08-21T07:23:33.119Z,101160.94
2022-08-21T07:26:02.893Z,101153.56
2022-08-21T07:28:31.675Z,101163.41
2022-08-21T07:31:00.624Z,101154.19
2022-08-21T07:33:30.543Z,101160.13
2022-08-21T07:35:57.848Z,101151.94
2022-08-21T07:38:27.203Z,101150.09
2022-08-21T07:40:57.111Z,101144.75
2022-08-21T07:43:23.986Z,101144.56
2022-08-21T07:45:50.843Z,101138.00
2022-08-21T07:48:26.605Z,101141.31
2022-08-21T07:50:53.482Z,101142.97
2022-08-21T07:53:20.274Z,101136.78
2022-08-21T07:55:47.159Z,101144.81
2022-08-21T07:58:14.068Z,101145.63
2022-08-21T08:00:41.944Z,101153.03
2022-08-21T08:03:09.583Z,101154.44
2022-08-21T08:05:38.585Z,101150.56
2022-08-21T08:08:05.515Z,101150.56
2022-08-21T08:10:32.673Z,101143.16
2022-08-21T08:12:59.782Z,101146.06
2022-08-21T08:15:29.315Z,101141.53
2022-08-21T08:17:58.229Z,101133.94
2022-08-21T08:20:27.648Z,101141.31
2022-08-21T08:22:55.529Z,101134.53
2022-08-21T08:25:24.090Z,101140.91
2022-08-21T08:27:51.099Z,101138.88
2022-08-21T08:30:20.716Z,101137.84
2022-08-21T08:32:48.887Z,101130.63
2022-08-21T08:35:15.701Z,101135.16
2022-08-21T08:37:43.981Z,101124.28
2022-08-21T08:40:32.101Z,101126.53
2022-08-21T08:42:59.206Z,101122.00
2022-08-21T08:45:27.539Z,101123.47
2022-08-21T08:48:00.254Z,101119.13
2022-08-21T08:50:30.817Z,101120.78
2022-08-21T08:53:09.880Z,101127.78
2022-08-21T08:55:41.767Z,101138.03
2022-08-21T08:58:26.786Z,101135.56
2022-08-21T09:00:56.207Z,101142.97
2022-08-21T09:03:27.289Z,101141.50
2022-08-21T09:06:08.345Z,101144.59
2022-08-21T09:08:43.940Z,101149.53
2022-08-21T09:11:38.361Z,101155.06
2022-08-21T09:14:11.306Z,101157.78
2022-08-21T09:16:56.379Z,101153.22
2022-08-21T09:19:56.845Z,101148.06
2022-08-21T09:23:06.048Z,101159.16
2022-08-21T09:25:41.692Z,101148.44
2022-08-21T09:28:14.009Z,101150.47
2022-08-21T09:30:42.425Z,101158.88
2022-08-21T09:33:13.916Z,101169.13
2022-08-21T09:35:54.232Z,101173.19
2022-08-21T09:38:33.947Z,101165.16
2022-08-21T09:41:04.989Z,101169.47
2022-08-21T09:43:32.820Z,101162.84
2022-08-21T09:46:23.372Z,101175.97
2022-08-21T09:48:53.573Z,101176.59
2022-08-21T09:51:24.224Z,101168.94
2022-08-21T09:54:18.948Z,101169.94
2022-08-21T09:57:32.213Z,101173.81
2022-08-21T10:00:25.880Z,101169.06
2022-08-21T10:02:52.816Z,101167.78
2022-08-21T10:05:21.639Z,101164.66
2022-08-21T10:07:48.578Z,101167.75
2022-08-21T10:10:22.873Z,101168.97
2022-08-21T10:13:10.446Z,101164.41
2022-08-21T10:16:06.121Z,101156.19
2022-08-21T10:19:08.690Z,101157.78
2022-08-21T10:21:53.850Z,101157.78
2022-08-21T10:24:51.532Z,101160.06
2022-08-21T10:27:46.819Z,101156.72
2022-08-21T10:30:29.454Z,101148.47
2022-08-21T10:33:19.573Z,101151.16
2022-08-21T10:36:10.954Z,101154.00
2022-08-21T10:39:17.718Z,101154.97
2022-08-21T10:42:22.698Z,101143.81
2022-08-21T10:45:26.166Z,101147.69
2022-08-21T10:48:01.935Z,101148.97
2022-08-21T10:50:34.735Z,101136.81
2022-08-21T10:53:33.947Z,101146.50
2022-08-21T10:56:13.543Z,101140.94
2022-08-21T10:59:12.409Z,101142.78
2022-08-21T11:01:51.281Z,101132.28
2022-08-21T11:04:48.902Z,101133.94
2022-08-21T11:07:43.009Z,101145.88
2022-08-21T11:10:17.820Z,101148.56
2022-08-21T11:12:54.430Z,101144.84
2022-08-21T11:15:32.390Z,101145.47
2022-08-21T11:18:32.817Z,101146.28
2022-08-21T11:21:31.295Z,101147.53
2022-08-21T11:24:04.762Z,101153.72
2022-08-21T11:26:45.923Z,101151.41
2022-08-21T11:29:34.556Z,101162.59
2022-08-21T11:32:42.738Z,101161.56
2022-08-21T11:35:57.242Z,101154.53
2022-08-21T11:38:56.083Z,101167.94
2022-08-21T11:42:09.019Z,101165.84
2022-08-21T11:44:52.181Z,101168.53
2022-08-21T11:47:53.304Z,101174.28
2022-08-21T11:50:34.442Z,101172.03
2022-08-21T11:53:19.235Z,101165.00
2022-08-21T11:55:58.241Z,101161.66
2022-08-21T11:58:34.990Z,101164.50
2022-08-21T12:01:17.281Z,101165.72
2022-08-21T12:04:01.283Z,101169.97
2022-08-21T12:06:36.909Z,101171.63
2022-08-21T12:09:12.056Z,101161.88
2022-08-21T12:11:50.751Z,101167.41
2022-08-21T12:14:20.007Z,101168.38
2022-08-21T12:16:50.142Z,101166.88
2022-08-21T12:19:26.121Z,101165.19
2022-08-21T12:22:01.062Z,101168.84
2022-08-21T12:24:28.024Z,101171.69
2022-08-21T12:26:58.910Z,101165.50
2022-08-21T12:29:38.456Z,101163.63
2022-08-21T12:32:24.309Z,101165.13
2022-08-21T12:35:04.098Z,101158.53
2022-08-21T12:37:44.565Z,101154.41
2022-08-21T12:40:27.339Z,101153.09
2022-08-21T12:42:58.979Z,101150.56
2022-08-21T12:45:37.381Z,101151.41
2022-08-21T12:48:13.211Z,101151.34
2022-08-21T12:50:48.741Z,101140.75
2022-08-21T12:53:40.195Z,101131.00
2022-08-21T12:56:11.721Z,101131.94
2022-08-21T12:58:42.315Z,101148.66
2022-08-21T13:01:41.266Z,101141.22
2022-08-21T13:04:14.474Z,101139.09
2022-08-21T13:06:45.945Z,101141.78
2022-08-21T13:09:18.079Z,101138.53
2022-08-21T13:11:48.250Z,101142.59
2022-08-21T13:14:34.806Z,101133.06
2022-08-21T13:17:08.056Z,101137.38
2022-08-21T13:19:35.714Z,101134.00
2022-08-21T13:22:14.939Z,101128.22
2022-08-21T13:24:52.349Z,101131.25
2022-08-21T13:27:38.492Z,101129.38
2022-08-21T13:30:21.531Z,101117.59
2022-08-21T13:32:56.831Z,101127.88
2022-08-21T13:35:37.305Z,101121.25
2022-08-21T13:38:06.572Z,101114.38
2022-08-21T13:40:43.965Z,101116.00
2022-08-21T13:43:19.941Z,101112.25
2022-08-21T13:45:56.019Z,101118.00
2022-08-21T13:48:35.800Z,101125.47
2022-08-21T13:51:03.794Z,101111.22
2022-08-21T13:53:37.133Z,101112.84
2022-08-21T13:56:05.825Z,101107.16
2022-08-21T13:58:45.711Z,101111.03
2022-08-21T14:01:54.458Z,101097.13
2022-08-21T14:04:28.361Z,101111.16
2022-08-21T14:06:55.501Z,101095.63
2022-08-21T14:09:43.089Z,101105.94
2022-08-21T14:12:23.673Z,101119.09
2022-08-21T14:14:52.591Z,101106.28
2022-08-21T14:17:34.439Z,101098.44
2022-08-21T14:20:02.041Z,101090.50
2022-08-21T14:22:48.599Z,101096.66
2022-08-21T14:25:27.689Z,101092.94
2022-08-21T14:28:34.525Z,101076.59
2022-08-21T14:31:19.542Z,101084.66
2022-08-21T14:33:46.433Z,101081.75
2022-08-21T14:36:13.339Z,101086.47
2022-08-21T14:38:41.626Z,101079.91
2022-08-21T14:41:27.305Z,101081.91
2022-08-21T14:44:05.960Z,101078.75
2022-08-21T14:46:51.175Z,101082.03
2022-08-21T14:49:27.772Z,101080.53
2022-08-21T14:51:59.535Z,101080.88
2022-08-21T14:54:32.252Z,101076.31
2022-08-21T14:57:12.009Z,101069.78
2022-08-21T14:59:40.123Z,101073.13
2022-08-21T15:02:08.720Z,101074.66
2022-08-21T15:04:36.470Z,101066.97
2022-08-21T15:07:03.672Z,101069.66
2022-08-21T15:09:41.624Z,101064.28
2022-08-21T15:12:11.224Z,101062.38
2022-08-21T15:14:41.438Z,101060.28
2022-08-21T15:17:11.045Z,101060.91
2022-08-21T15:19:38.294Z,101058.78
2022-08-21T15:22:05.583Z,101062.06
2022-08-21T15:24:33.183Z,101059.16
2022-08-21T15:27:02.739Z,101056.22
2022-08-21T15:29:33.339Z,101056.81
2022-08-21T15:32:18.946Z,101047.69
2022-08-21T15:34:46.041Z,101049.31
2022-08-21T15:37:12.997Z,101047.69
2022-08-21T15:39:41.531Z,101052.25
2022-08-21T15:42:11.085Z,101054.81
2022-08-21T15:44:42.261Z,101051.53
2022-08-21T15:47:36.941Z,101047.81
2022-08-21T15:50:08.328Z,101054.81
2022-08-21T15:52:35.402Z,101049.19
2022-08-21T15:55:02.487Z,101047.91
2022-08-21T15:57:29.390Z,101051.44
2022-08-21T16:00:07.532Z,101042.31
2022-08-21T16:02:34.432Z,101041.00
2022-08-21T16:05:01.383Z,101039.75
2022-08-21T16:07:28.169Z,101037.63
2022-08-21T16:09:55.267Z,101040.31
2022-08-21T16:12:32.003Z,101032.84
2022-08-21T16:15:00.641Z,101028.84
2022-08-21T16:17:31.724Z,101038.31
2022-08-21T16:19:59.357Z,101031.09
2022-08-21T16:22:26.400Z,101035.16
2022-08-21T16:25:07.906Z,101027.09
2022-08-21T16:27:36.626Z,101030.03
2022-08-21T16:30:08.019Z,101026.75
2022-08-21T16:32:35.622Z,101029.22
2022-08-21T16:35:04.715Z,101025.44
2022-08-21T16:37:32.815Z,101023.94
2022-08-21T16:39:59.807Z,101033.16
2022-08-21T16:42:27.213Z,101026.75
2022-08-21T16:44:55.661Z,101026.75
2022-08-21T16:47:26.329Z,101028.34
2022-08-21T16:49:54.608Z,101021.69
2022-08-21T16:52:21.505Z,101025.31
2022-08-21T16:54:48.479Z,101038.28
2022-08-21T16:57:15.795Z,101026.25
2022-08-21T16:59:43.011Z,101019.22
2022-08-21T17:02:30.122Z,101027.28
2022-08-21T17:04:57.163Z,101026.69
2022-08-21T17:07:25.812Z,101032.78
2022-08-21T17:09:52.774Z,101021.81
2022-08-21T17:12:19.862Z,101013.97
2022-08-21T17:14:48.350Z,101016.31
2022-08-21T17:17:15.896Z,101007.44
2022-08-21T17:19:43.352Z,101017.59
2022-08-21T17:22:10.632Z,101019.50
2022-08-21T17:24:38.020Z,101016.81
2022-08-21T17:27:07.027Z,101012.81
2022-08-21T17:29:40.241Z,101018.41
2022-08-21T17:32:11.049Z,101015.16
2022-08-21T17:34:39.625Z,101017.84
2022-08-21T17:37:07.742Z,101015.41
2022-08-21T17:39:34.925Z,101012.13
2022-08-21T17:42:06.794Z,101012.59
2022-08-21T17:44:34.719Z,101014.00
2022-08-21T17:47:01.637Z,101020.44
2022-08-21T17:49:28.541Z,101021.47
2022-08-21T17:51:55.416Z,101020.66
2022-08-21T17:54:22.357Z,101023.34
2022-08-21T17:56:49.219Z,101017.97
2022-08-21T17:59:16.464Z,101021.25
2022-08-21T18:01:46.984Z,101021.25
2022-08-21T18:04:14.387Z,101011.53
2022-08-21T18:06:42.090Z,101018.78
2022-08-21T18:09:10.036Z,101016.59
2022-08-21T18:11:37.928Z,101025.69
2022-08-21T18:14:07.776Z,101022.66
2022-08-21T18:16:37.747Z,101017.53
2022-08-21T18:19:09.768Z,101022.31
2022-08-21T18:21:36.637Z,101025.72
2022-08-21T18:24:03.994Z,101025.59
2022-08-21T18:26:35.030Z,101023.00
2022-08-21T18:29:05.691Z,101023.97
2022-08-21T18:31:34.169Z,101019.03
2022-08-21T18:34:06.257Z,101025.72
2022-08-21T18:36:33.169Z,101027.81
2022-08-21T18:39:19.325Z,101031.78
2022-08-21T18:41:49.264Z,101028.75
2022-08-21T18:44:19.195Z,101034.59
2022-08-21T18:46:51.563Z,101043.06
2022-08-21T18:49:18.773Z,101048.09
2022-08-21T18:51:46.296Z,101049.13
2022-08-21T18:54:14.614Z,101046.91
2022-08-21T18:56:42.458Z,101049.25
2022-08-21T18:59:10.890Z,101049.72
2022-08-21T19:01:39.006Z,101065.47
2022-08-21T19:04:08.939Z,101063.22
2022-08-21T19:06:37.955Z,101062.44
2022-08-21T19:09:07.301Z,101070.13
2022-08-21T19:11:35.579Z,101059.63
2022-08-21T19:14:08.267Z,101072.66
2022-08-21T19:16:47.483Z,101066.72
2022-08-21T19:19:17.524Z,101076.88
2022-08-21T19:21:45.001Z,101078.16
2022-08-21T19:24:17.746Z,101074.66
2022-08-21T19:26:45.708Z,101081.50
2022-08-21T19:29:17.037Z,101079.06
2022-08-21T19:31:45.802Z,101076.81
2022-08-21T19:34:20.230Z,101080.31
2022-08-21T19:36:48.148Z,101075.19
2022-08-21T19:39:19.065Z,101076.00
2022-08-21T19:41:51.892Z,101079.97
2022-08-21T19:44:23.145Z,101085.81
2022-08-21T19:46:52.981Z,101079.22
2022-08-21T19:49:23.456Z,101079.09
2022-08-21T19:51:50.783Z,101091.13
2022-08-21T19:54:30.563Z,101098.34
2022-08-21T19:57:03.760Z,101102.75
2022-08-21T19:59:33.024Z,101107.28
2022-08-21T20:02:01.014Z,101101.09
2022-08-21T20:04:28.877Z,101101.31
2022-08-21T20:06:56.813Z,101109.16
2022-08-21T20:09:24.383Z,101107.50
2022-08-21T20:11:58.066Z,101115.78
2022-08-21T20:14:30.762Z,101113.53
2022-08-21T20:17:05.745Z,101112.94
2022-08-21T20:19:34.319Z,101113.78
2022-08-21T20:22:01.542Z,101118.53
2022-08-21T20:24:29.080Z,101112.56
2022-08-21T20:26:57.501Z,101118.38
2022-08-21T20:29:31.445Z,101121.53
2022-08-21T20:32:05.166Z,101120.31
2022-08-21T20:34:34.006Z,101120.16
2022-08-21T20:37:01.982Z,101128.66
2022-08-21T20:39:32.659Z,101128.66
2022-08-21T20:41:59.989Z,101130.75
2022-08-21T20:44:31.826Z,101132.03
2022-08-21T20:47:00.467Z,101120.09
2022-08-21T20:49:46.874Z,101119.97
2022-08-21T20:52:16.385Z,101123.88
2022-08-21T20:54:50.517Z,101117.69
2022-08-21T20:57:29.242Z,101121.44
2022-08-21T21:00:01.768Z,101121.06
2022-08-21T21:02:40.532Z,101117.19
2022-08-21T21:05:13.245Z,101117.22
2022-08-21T21:08:05.765Z,101123.66
2022-08-21T21:10:57.529Z,101119.53
2022-08-21T21:13:30.999Z,101124.28
2022-08-21T21:16:38.738Z,101129.28
2022-08-21T21:19:29.816Z,101124.59
2022-08-21T21:22:11.337Z,101129.34
2022-08-21T21:24:51.617Z,101121.50
2022-08-21T21:27:58.810Z,101120.91
2022-08-21T21:30:35.429Z,101122.38
2022-08-21T21:33:03.805Z,101113.16
2022-08-21T21:35:54.865Z,101107.19
2022-08-21T21:38:51.942Z,101107.38
2022-08-21T21:41:34.471Z,101104.13
2022-08-21T21:44:46.069Z,101102.47
2022-08-21T21:47:37.034Z,101099.81
2022-08-21T21:50:42.835Z,101100.25
2022-08-21T21:53:39.855Z,101092.63
2022-08-21T21:56:22.872Z,101087.47
2022-08-21T21:59:24.716Z,101084.81
2022-08-21T22:02:19.760Z,101099.47
2022-08-21T22:05:04.403Z,101104.47
2022-08-21T22:07:51.459Z,101091.47
2022-08-21T22:10:31.942Z,101094.81
2022-08-21T22:13:09.575Z,101094.44
2022-08-21T22:15:38.663Z,101094.88
2022-08-21T22:18:25.380Z,101093.25
2022-08-21T22:21:13.792Z,101085.41
2022-08-21T22:23:45.257Z,101083.97
2022-08-21T22:26:19.237Z,101073.34
2022-08-21T22:28:50.290Z,101071.09
2022-08-21T22:31:24.720Z,101065.34
2022-08-21T22:34:18.353Z,101063.69
2022-08-21T22:36:59.679Z,101076.06
2022-08-21T22:39:46.336Z,101078.75
2022-08-21T22:42:21.916Z,101071.72
2022-08-21T22:44:57.027Z,101071.16
2022-08-21T22:47:37.100Z,101059.81
2022-08-21T22:50:17.862Z,101056.53
2022-08-21T22:52:49.005Z,101057.34
2022-08-21T22:55:24.693Z,101065.63
2022-08-21T22:58:46.228Z,101067.06
2022-08-21T23:01:22.684Z,101067.09
2022-08-21T23:03:57.384Z,101065.47
2022-08-21T23:06:35.013Z,101070.19
2022-08-21T23:09:03.179Z,101063.22
2022-08-21T23:11:44.533Z,101064.03
2022-08-21T23:14:18.215Z,101056.81
2022-08-21T23:17:09.126Z,101066.50
2022-08-21T23:19:39.736Z,101065.91
2022-08-21T23:22:51.495Z,101077.03
2022-08-21T23:25:30.881Z,101076.44
2022-08-21T23:28:07.437Z,101085.50
2022-08-21T23:31:25.109Z,101090.22
2022-08-21T23:34:11.054Z,101091.50
2022-08-21T23:37:23.241Z,101087.38
2022-08-21T23:40:21.487Z,101092.94
2022-08-21T23:43:10.298Z,101092.13
2022-08-21T23:45:56.362Z,101094.00
2022-08-21T23:48:33.084Z,101089.66
2022-08-21T23:51:24.386Z,101091.53
2022-08-21T23:54:13.243Z,101092.75
2022-08-21T23:57:08.156Z,101088.03
2022-08-21T23:59:54.072Z,101083.34
